Flight Track Log - Related Links

Times and Time Zones

All times are in EDT time to prevent confusion due to time zone crossing. See the SWA3694 flight status page for this flight to view local times or setup timezone preferences in your user account.

Time Position Orientation Groundspeed Altitude Reporting Facility
EDT Latitude Longitude Course Direction KTS MPH feet Rate Location/Type
Sat 05:09:03 PM 36.1228 -115.1847 296° West 206 237 4,500  Level Los Angeles Center
Sat 05:10:02 PM 36.1086 -115.2547 256° West 218 251 7,400 2,826 Climbing Los Angeles Center
Sat 05:11:04 PM 36.0608 -115.3128 224° Southwest 272 313 10,200 2,565 Climbing Los Angeles Center
Sat 05:12:06 PM 35.9717 -115.3614 204° Southwest 337 388 12,700 2,806 Climbing Los Angeles Center
Sat 05:13:08 PM 35.9331 -115.4697 246° West 366 421 16,000 3,290 Climbing Los Angeles Center
Sat 05:14:10 PM 35.9300 -115.6097 268° West 380 437 19,500 3,000 Climbing Los Angeles Center
Sat 05:15:12 PM 35.9164 -115.7453 263° West 401 461 22,200 2,565 Climbing Los Angeles Center
Sat 05:16:14 PM 35.9039 -115.8872 264° West 412 474 24,800 2,371 Climbing Los Angeles Center
Sat 05:17:16 PM 35.9150 -116.0175 276° West 410 472 27,100 2,419 Climbing Los Angeles Center
Sat 05:18:18 PM 35.9567 -116.1478 292° West 415 478 29,800 2,323 Climbing Los Angeles Center
Sat 05:19:20 PM 36.0061 -116.3008 292° West 407 468 31,900 1,887 Climbing Los Angeles Center
Sat 05:20:22 PM 36.0478 -116.4333 291° West 408 470 33,700 1,742 Climbing Los Angeles Center
Sat 05:21:24 PM 36.0889 -116.5633 291° West 409 471 35,500 1,452 Climbing Los Angeles Center
Sat 05:22:26 PM 36.1306 -116.6939 292° West 409 471 36,700 1,306 Climbing Los Angeles Center
Sat 05:23:28 PM 36.1714 -116.8233 291° West 409 471 38,200 1,500 Climbing Los Angeles Center
Sat 05:24:30 PM 36.2197 -116.9781 291° West 406 467 39,800 871 Climbing Los Angeles Center
Sat 05:25:32 PM 36.2589 -117.1058 291° West 403 464 40,000 97 Climbing Los Angeles Center
Sat 05:26:34 PM 36.2978 -117.2311 291° West 397 457 40,000  Level Los Angeles Center
Sat 05:27:36 PM 36.3378 -117.3608 291° West 400 460 40,000  Level Los Angeles Center
Sat 05:28:38 PM 36.3767 -117.4889 291° West 400 460 40,000  Level Los Angeles Center
Sat 05:29:40 PM 36.4150 -117.6156 291° West 399 459 40,000  Level Los Angeles Center
Sat 05:30:42 PM 36.4614 -117.7658 291° West 397 457 40,000  Level Los Angeles Center
Sat 05:31:44 PM 36.5003 -117.8925 291° West 394 453 40,000  Level Los Angeles Center
Sat 05:32:46 PM 36.5383 -118.0211 290° West 395 455 40,000  Level Los Angeles Center
Sat 05:33:48 PM 36.5758 -118.1464 290° West 394 453 40,000  Level Los Angeles Center
Sat 05:34:50 PM 36.6133 -118.2722 290° West 392 451 40,000  Level Los Angeles Center
Sat 05:35:52 PM 36.6583 -118.4244 290° West 391 450 40,000  Level Los Angeles Center
Sat 05:36:55 PM 36.6947 -118.5475 290° West 387 445 40,000 -48 Level Los Angeles Center
Sat 05:37:57 PM 36.7306 -118.6719 290° West 386 444 39,900 -339 Descending Los Angeles Center
Sat 05:38:59 PM 36.7675 -118.7944 291° West 386 444 39,300 -629 Descending Los Angeles Center
Sat 05:40:01 PM 36.8056 -118.9342 289° West 395 455 38,600 -629 Descending Los Angeles Center
Sat 05:41:03 PM 36.8433 -119.0639 290° West 396 456 38,000 -774 Descending Los Angeles Center
Sat 05:42:05 PM 36.8792 -119.1861 290° West 382 440 37,000 -1,356 Descending Los Angeles Center
Sat 05:43:29 PM 36.9272 -119.3578 289° West 381 438 34,700 -1,945 Descending Oakland Center
Sat 05:44:30 PM 36.9686 -119.5039 290° West 374 430 32,300 -2,098 Descending Oakland Center
Sat 05:45:32 PM 37.0014 -119.6169 290° West 352 405 30,400 -1,756 Descending Oakland Center
Sat 05:46:33 PM 37.0319 -119.7256 289° West 338 389 28,700 -1,672 Descending Oakland Center
Sat 05:47:34 PM 37.0606 -119.8292 289° West 322 371 27,000 -1,721 Descending Oakland Center
Sat 05:48:35 PM 37.0925 -119.9411 290° West 320 368 25,200 -1,707 Descending Oakland Center
Sat 05:49:37 PM 37.1206 -120.0467 288° West 320 368 23,500 -1,756 Descending Oakland Center
Sat 05:50:38 PM 37.1239 -120.1681 272° West 354 407 21,600 -1,377 Descending Oakland Center
Sat 05:51:39 PM 37.1156 -120.3108 266° West 400 460 20,700 -878 Descending Oakland Center
Sat 05:52:41 PM 37.1092 -120.4519 267° West 404 465 19,800 -927 Descending Oakland Center
Sat 05:53:42 PM 37.1017 -120.5878 266° West 397 457 18,800 -984 Descending Oakland Center
Sat 05:54:43 PM 37.0953 -120.7222 267° West 388 447 17,800 -885 Descending Oakland Center
Sat 05:55:44 PM 37.0875 -120.8583 266° West 392 451 17,000 -1,795 Descending Oakland Center
Sat 05:56:40 PM 37.0833 -121.0000 268° West 378 435 14,300 -2,741 Descending Northern Cal TRACON
Sat 05:57:40 PM 37.0667 -121.1333 261° West 365 420 11,700 -2,063 Descending Northern Cal TRACON
Sat 05:58:48 PM 37.0822 -121.2689 278° West 349 402 9,900 -1,070 Descending Oakland Center
Sat 05:59:49 PM 37.1000 -121.3619 283° West 294 338 9,400 -829 Descending Oakland Center
Sat 06:00:51 PM 37.1158 -121.4536 282° West 274 315 8,200 -1,512 Descending Oakland Center
Sat 06:01:52 PM 37.1331 -121.5417 284° West 262 302 6,300 -1,525 Descending Oakland Center
Sat 06:02:53 PM 37.1503 -121.6369 283° West 270 311 5,100 -639 Descending Oakland Center
Sat 06:03:54 PM 37.1653 -121.7206 283° West 262 302 5,000 -585 Descending Oakland Center
Sat 06:04:56 PM 37.2033 -121.7592 321° Northwest 206 237 3,900 -976 Descending Oakland Center
Sat 06:05:57 PM 37.2428 -121.8003 320° Northwest 191 220 3,000 -885 Descending Oakland Center
Sat 06:06:58 PM 37.2764 -121.8383 318° Northwest 177 204 2,100 -787 Descending Oakland Center
Sat 06:07:59 PM 37.3067 -121.8722 318° Northwest 161 185 1,400 -738 Descending Oakland Center
Sat 06:09:00 PM 37.3342 -121.9017 320° Northwest 144 166 600 9,073 Descending Oakland Center
Sat 06:10:02 PM 37.3667 -121.9369 319° Northwest 134 154 20,000 18,774 Climbing Oakland Center

Login

Don't have an account? Register now (free) for customized features, flight alerts, and more!